createdAt,value
2022-09-13T00:01:45.022Z,5.87
2022-09-13T00:07:07.223Z,6.07
2022-09-13T00:12:29.343Z,6.03
2022-09-13T00:17:51.090Z,6.01
2022-09-13T00:23:14.092Z,5.87
2022-09-13T00:28:36.778Z,5.85
2022-09-13T00:34:00.842Z,5.88
2022-09-13T00:39:23.292Z,5.86
2022-09-13T00:44:53.552Z,5.83
2022-09-13T00:50:42.793Z,5.75
2022-09-13T00:56:25.143Z,5.62
2022-09-13T01:01:52.786Z,5.66
2022-09-13T01:07:16.863Z,5.64
2022-09-13T01:12:57.961Z,5.56
2022-09-13T01:18:20.232Z,5.62
2022-09-13T01:24:21.101Z,5.39
2022-09-13T01:30:08.017Z,5.23
2022-09-13T01:35:50.421Z,5.08
2022-09-13T01:41:30.712Z,5.00
2022-09-13T01:47:27.833Z,4.87
2022-09-13T01:53:39.432Z,4.82
2022-09-13T01:59:11.442Z,4.87
2022-09-13T02:04:40.836Z,4.90
2022-09-13T02:10:14.052Z,4.89
2022-09-13T02:15:46.162Z,4.90
2022-09-13T02:21:17.253Z,4.86
2022-09-13T02:26:43.652Z,4.84
2022-09-13T02:32:17.132Z,4.80
2022-09-13T02:37:40.774Z,4.73
2022-09-13T02:43:09.653Z,4.72
2022-09-13T02:49:00.454Z,4.72
2022-09-13T02:54:36.632Z,4.68
2022-09-13T02:59:59.627Z,4.62
2022-09-13T03:05:22.071Z,4.63
2022-09-13T03:11:00.782Z,4.63
2022-09-13T03:16:52.002Z,4.67
2022-09-13T03:22:36.034Z,4.69
2022-09-13T03:28:34.892Z,4.71
2022-09-13T03:34:20.843Z,4.77
2022-09-13T03:40:08.857Z,4.83
2022-09-13T03:45:36.640Z,4.79
2022-09-13T03:50:59.150Z,4.90
2022-09-13T03:56:21.672Z,4.84
2022-09-13T04:01:44.391Z,4.95
2022-09-13T04:07:11.420Z,4.53
2022-09-13T04:12:33.821Z,4.70
2022-09-13T04:18:01.813Z,4.83
2022-09-13T04:23:25.302Z,5.07
2022-09-13T04:28:47.918Z,5.76
2022-09-13T04:34:10.542Z,5.95
2022-09-13T04:39:32.894Z,6.34
2022-09-13T04:45:07.333Z,6.85
2022-09-13T04:50:29.113Z,7.36
2022-09-13T04:55:54.131Z,8.12
2022-09-13T05:01:17.247Z,8.61
2022-09-13T05:06:39.432Z,9.21
2022-09-13T05:12:01.361Z,9.75
2022-09-13T05:17:23.532Z,10.03
2022-09-13T05:22:45.693Z,10.43
2022-09-13T05:28:07.994Z,10.81
2022-09-13T05:33:33.712Z,10.85
2022-09-13T05:39:18.772Z,11.06
2022-09-13T05:44:38.573Z,11.68
2022-09-13T05:50:33.163Z,12.07
2022-09-13T05:55:42.362Z,12.10
2022-09-13T06:01:04.282Z,11.63
2022-09-13T06:06:29.391Z,11.65
2022-09-13T06:11:51.934Z,12.19
2022-09-13T06:17:14.710Z,12.49
2022-09-13T06:22:37.494Z,13.09
2022-09-13T06:28:02.283Z,13.35
2022-09-13T06:33:28.132Z,13.56
2022-09-13T06:38:53.232Z,13.71
2022-09-13T06:44:15.492Z,13.80
2022-09-13T06:49:37.834Z,14.17
2022-09-13T06:55:02.232Z,14.70
2022-09-13T07:00:25.194Z,14.69
2022-09-13T07:05:47.450Z,14.99
2022-09-13T07:11:14.162Z,15.16
2022-09-13T07:16:38.892Z,15.36
2022-09-13T07:22:00.863Z,15.42
2022-09-13T07:27:22.701Z,15.53
2022-09-13T07:32:44.652Z,15.72
2022-09-13T07:38:06.682Z,15.79
2022-09-13T07:43:29.724Z,16.20
2022-09-13T07:48:54.402Z,16.41
2022-09-13T07:54:19.264Z,16.37
2022-09-13T07:59:41.052Z,16.44
2022-09-13T08:05:03.133Z,16.40
2022-09-13T08:10:25.122Z,16.18
2022-09-13T08:15:47.232Z,16.76
2022-09-13T08:21:11.914Z,16.87
2022-09-13T08:26:36.335Z,17.06
2022-09-13T08:32:00.993Z,16.91
2022-09-13T08:37:23.222Z,16.95
2022-09-13T08:42:54.642Z,16.98
2022-09-13T08:48:21.324Z,16.93
2022-09-13T08:53:49.634Z,16.98
2022-09-13T08:59:39.171Z,17.05
2022-09-13T09:05:15.302Z,17.05
2022-09-13T09:10:47.121Z,16.77
2022-09-13T09:16:37.402Z,17.33
2022-09-13T09:22:02.193Z,16.85
2022-09-13T09:27:29.311Z,17.24
2022-09-13T09:33:19.002Z,17.15
2022-09-13T09:38:48.130Z,17.08
2022-09-13T09:44:23.322Z,17.51
2022-09-13T09:50:10.815Z,17.16
2022-09-13T09:55:47.363Z,17.39
2022-09-13T10:01:21.014Z,16.89
2022-09-13T10:06:47.272Z,17.40
2022-09-13T10:12:09.322Z,17.37
2022-09-13T10:17:31.441Z,17.22
2022-09-13T10:23:23.234Z,17.09
2022-09-13T10:29:08.991Z,17.27
2022-09-13T10:34:36.272Z,17.37
2022-09-13T10:39:58.237Z,17.41
2022-09-13T10:45:25.784Z,17.36
2022-09-13T10:51:05.461Z,17.29
2022-09-13T10:56:28.480Z,17.54
2022-09-13T11:02:29.221Z,17.48
2022-09-13T11:08:01.851Z,17.17
2022-09-13T11:13:55.152Z,17.09
2022-09-13T11:19:42.445Z,17.12
2022-09-13T11:25:31.675Z,16.96
2022-09-13T11:31:09.150Z,17.50
2022-09-13T11:36:43.816Z,17.10
2022-09-13T11:42:32.615Z,17.26
2022-09-13T11:48:18.424Z,17.19
2022-09-13T11:53:43.604Z,17.54
2022-09-13T11:59:37.897Z,17.52
2022-09-13T12:05:24.238Z,17.29
2022-09-13T12:10:55.155Z,16.99
2022-09-13T12:16:36.416Z,17.06
2022-09-13T12:22:06.965Z,17.16
2022-09-13T12:27:56.044Z,17.52
2022-09-13T12:33:30.291Z,17.37
2022-09-13T12:39:35.283Z,16.94
2022-09-13T12:45:58.329Z,17.49
2022-09-13T12:52:13.205Z,17.48
2022-09-13T12:57:44.059Z,17.46
2022-09-13T13:03:26.231Z,17.36
2022-09-13T13:08:54.804Z,17.22
2022-09-13T13:14:38.524Z,17.18
2022-09-13T13:20:41.604Z,17.01
2022-09-13T13:26:21.064Z,16.88
2022-09-13T13:32:08.002Z,16.89
2022-09-13T13:37:34.023Z,16.93
2022-09-13T13:43:17.631Z,16.80
2022-09-13T13:48:44.624Z,16.72
2022-09-13T13:54:31.304Z,16.64
2022-09-13T14:00:15.650Z,16.57
2022-09-13T14:05:55.964Z,16.43
2022-09-13T14:11:41.502Z,16.33
2022-09-13T14:17:48.622Z,16.16
2022-09-13T14:23:26.282Z,15.80
2022-09-13T14:29:00.796Z,15.61
2022-09-13T14:34:30.183Z,15.59
2022-09-13T14:40:01.951Z,15.45
2022-09-13T14:45:34.607Z,15.12
2022-09-13T14:51:23.742Z,15.06
2022-09-13T14:57:09.100Z,15.02
2022-09-13T15:02:50.392Z,15.34
2022-09-13T15:09:02.622Z,14.93
2022-09-13T15:15:33.181Z,14.71
2022-09-13T15:21:18.333Z,14.89
2022-09-13T15:26:42.930Z,14.66
2022-09-13T15:32:35.682Z,14.20
2022-09-13T15:44:19.302Z,14.14
2022-09-13T15:49:44.933Z,14.03
2022-09-13T15:55:16.595Z,13.77
2022-09-13T16:56:29.757Z,12.99
2022-09-13T17:07:48.220Z,12.85
2022-09-13T17:13:10.452Z,12.55
2022-09-13T17:18:32.442Z,12.40
2022-09-13T17:23:56.601Z,12.41
2022-09-13T17:29:18.395Z,12.41
2022-09-13T17:40:27.269Z,12.23
2022-09-13T17:45:49.330Z,12.21
2022-09-13T17:51:14.128Z,12.13
2022-09-13T17:56:41.839Z,12.04
2022-09-13T18:02:04.160Z,12.00
2022-09-13T18:07:32.357Z,11.53
2022-09-13T18:12:59.404Z,11.51
2022-09-13T18:18:27.156Z,11.79
2022-09-13T18:23:54.108Z,11.35
2022-09-13T18:29:20.480Z,11.72
2022-09-13T18:34:46.758Z,11.61
2022-09-13T18:40:14.579Z,11.04
2022-09-13T18:45:37.208Z,11.08
2022-09-13T18:51:00.301Z,10.95
2022-09-13T18:56:26.538Z,11.18
2022-09-13T19:01:49.480Z,10.96
2022-09-13T19:07:11.921Z,11.15
2022-09-13T19:12:34.500Z,11.34
2022-09-13T19:17:56.548Z,11.33
2022-09-13T19:23:18.510Z,11.33
2022-09-13T19:28:46.249Z,11.37
2022-09-13T19:34:09.488Z,11.44
2022-09-13T19:39:31.159Z,11.39
2022-09-13T19:44:53.308Z,11.27
2022-09-13T19:50:15.359Z,11.32
2022-09-13T19:55:45.410Z,11.25
2022-09-13T20:01:16.847Z,11.32
2022-09-13T20:06:46.369Z,10.98
2022-09-13T20:12:10.799Z,11.05
2022-09-13T20:17:35.458Z,10.84
2022-09-13T20:22:58.189Z,10.87
2022-09-13T20:28:20.617Z,11.08
2022-09-13T20:33:45.598Z,11.00
2022-09-13T20:39:08.507Z,10.94
2022-09-13T20:44:30.879Z,11.25
2022-09-13T20:49:53.638Z,11.29
2022-09-13T20:55:32.019Z,11.24
2022-09-13T21:00:54.691Z,11.47
2022-09-13T21:06:20.956Z,11.46
2022-09-13T21:11:44.453Z,11.47
2022-09-13T21:17:08.068Z,11.32
2022-09-13T21:22:30.418Z,11.46
2022-09-13T21:27:52.561Z,11.47
2022-09-13T21:33:15.857Z,11.33
2022-09-13T21:38:37.798Z,11.52
2022-09-13T21:43:59.448Z,11.53
2022-09-13T21:49:22.410Z,11.43
2022-09-13T21:54:44.538Z,11.51
2022-09-13T22:00:07.749Z,11.53
2022-09-13T22:05:34.610Z,11.55
2022-09-13T22:10:57.013Z,11.50
2022-09-13T22:16:21.886Z,11.49
2022-09-13T22:21:46.759Z,11.50
2022-09-13T22:27:08.970Z,11.43
2022-09-13T22:32:31.248Z,11.26
2022-09-13T22:37:53.599Z,11.24
2022-09-13T22:43:15.697Z,11.24
2022-09-13T22:48:38.310Z,11.07
2022-09-13T22:54:04.848Z,10.95
2022-09-13T22:59:28.709Z,11.08
2022-09-13T23:04:50.669Z,11.04
2022-09-13T23:10:13.072Z,11.05
2022-09-13T23:15:35.142Z,11.02
2022-09-13T23:20:57.509Z,10.89
2022-09-13T23:26:21.170Z,11.08
2022-09-13T23:31:44.072Z,11.11
2022-09-13T23:37:05.829Z,11.17
2022-09-13T23:42:27.897Z,11.18
2022-09-13T23:47:49.658Z,11.21
2022-09-13T23:53:11.845Z,11.18
2022-09-13T23:58:33.733Z,11.21
